sensor_id;sensor_type;location;lat;lon;timestamp;temperature;humidity
22682;DHT22;11508;50.856;4.380;2023-06-24T00:02:08;20.40;99.90
22682;DHT22;11508;50.856;4.380;2023-06-24T00:04:34;20.40;44.30
22682;DHT22;11508;50.856;4.380;2023-06-24T00:07:00;20.40;1.00
22682;DHT22;11508;50.856;4.380;2023-06-24T00:09:27;20.40;99.90
22682;DHT22;11508;50.856;4.380;2023-06-24T00:11:59;20.30;1.00
22682;DHT22;11508;50.856;4.380;2023-06-24T00:14:25;20.30;99.90
22682;DHT22;11508;50.856;4.380;2023-06-24T00:16:52;20.30;99.90
22682;DHT22;11508;50.856;4.380;2023-06-24T00:19:25;20.20;99.90
22682;DHT22;11508;50.856;4.380;2023-06-24T00:21:52;20.30;99.90
22682;DHT22;11508;50.856;4.380;2023-06-24T00:24:19;20.30;99.90
22682;DHT22;11508;50.856;4.380;2023-06-24T00:26:48;20.30;99.90
22682;DHT22;11508;50.856;4.380;2023-06-24T00:29:17;20.20;1.00
22682;DHT22;11508;50.856;4.380;2023-06-24T00:31:43;20.20;1.00
22682;DHT22;11508;50.856;4.380;2023-06-24T00:34:08;20.20;1.00
22682;DHT22;11508;50.856;4.380;2023-06-24T00:36:34;20.20;1.00
22682;DHT22;11508;50.856;4.380;2023-06-24T00:39:04;20.10;88.30
22682;DHT22;11508;50.856;4.380;2023-06-24T00:41:33;20.10;96.90
22682;DHT22;11508;50.856;4.380;2023-06-24T00:43:59;19.90;99.90
22682;DHT22;11508;50.856;4.380;2023-06-24T00:46:26;19.80;99.90
22682;DHT22;11508;50.856;4.380;2023-06-24T00:49:00;19.80;99.90
22682;DHT22;11508;50.856;4.380;2023-06-24T00:51:28;19.80;99.90
22682;DHT22;11508;50.856;4.380;2023-06-24T00:53:59;19.80;99.90
22682;DHT22;11508;50.856;4.380;2023-06-24T00:56:35;19.70;99.90
22682;DHT22;11508;50.856;4.380;2023-06-24T00:59:04;19.60;99.90
22682;DHT22;11508;50.856;4.380;2023-06-24T01:01:35;19.60;1.00
22682;DHT22;11508;50.856;4.380;2023-06-24T01:04:01;19.50;94.50
22682;DHT22;11508;50.856;4.380;2023-06-24T01:06:31;19.50;99.90
22682;DHT22;11508;50.856;4.380;2023-06-24T01:09:00;19.50;99.90
22682;DHT22;11508;50.856;4.380;2023-06-24T01:11:28;19.40;1.00
22682;DHT22;11508;50.856;4.380;2023-06-24T01:13:54;19.30;99.90
22682;DHT22;11508;50.856;4.380;2023-06-24T01:28:34;19.30;23.40
22682;DHT22;11508;50.856;4.380;2023-06-24T01:34:06;19.30;99.90
22682;DHT22;11508;50.856;4.380;2023-06-24T01:36:37;19.10;99.90
22682;DHT22;11508;50.856;4.380;2023-06-24T01:39:08;19.00;1.00
22682;DHT22;11508;50.856;4.380;2023-06-24T01:41:43;19.60;99.90
22682;DHT22;11508;50.856;4.380;2023-06-24T01:44:11;18.90;8.50
22682;DHT22;11508;50.856;4.380;2023-06-24T01:46:40;18.80;99.90
22682;DHT22;11508;50.856;4.380;2023-06-24T01:49:07;18.70;99.90
22682;DHT22;11508;50.856;4.380;2023-06-24T01:51:38;18.70;1.00
22682;DHT22;11508;50.856;4.380;2023-06-24T01:54:10;18.70;1.00
22682;DHT22;11508;50.856;4.380;2023-06-24T01:56:38;18.60;99.90
22682;DHT22;11508;50.856;4.380;2023-06-24T01:59:04;18.60;1.00
22682;DHT22;11508;50.856;4.380;2023-06-24T02:01:35;18.60;1.00
22682;DHT22;11508;50.856;4.380;2023-06-24T02:04:03;18.60;99.90
22682;DHT22;11508;50.856;4.380;2023-06-24T02:06:30;18.60;1.00
22682;DHT22;11508;50.856;4.380;2023-06-24T02:08:57;18.60;1.00
22682;DHT22;11508;50.856;4.380;2023-06-24T02:11:24;18.50;99.90
22682;DHT22;11508;50.856;4.380;2023-06-24T02:13:53;18.40;99.90
22682;DHT22;11508;50.856;4.380;2023-06-24T02:16:21;18.40;99.90
22682;DHT22;11508;50.856;4.380;2023-06-24T02:18:47;18.40;99.90
22682;DHT22;11508;50.856;4.380;2023-06-24T02:21:16;18.30;1.00
22682;DHT22;11508;50.856;4.380;2023-06-24T02:23:43;18.30;1.00
22682;DHT22;11508;50.856;4.380;2023-06-24T02:26:10;18.30;1.00
22682;DHT22;11508;50.856;4.380;2023-06-24T02:28:37;18.30;1.00
22682;DHT22;11508;50.856;4.380;2023-06-24T02:31:04;18.40;1.00
22682;DHT22;11508;50.856;4.380;2023-06-24T02:33:31;18.30;6.70
22682;DHT22;11508;50.856;4.380;2023-06-24T02:35:57;18.30;1.00
22682;DHT22;11508;50.856;4.380;2023-06-24T02:38:23;18.20;1.00
22682;DHT22;11508;50.856;4.380;2023-06-24T02:40:49;18.10;1.00
22682;DHT22;11508;50.856;4.380;2023-06-24T02:43:17;18.00;1.00
22682;DHT22;11508;50.856;4.380;2023-06-24T02:45:44;18.00;17.50
22682;DHT22;11508;50.856;4.380;2023-06-24T02:48:10;18.00;1.00
22682;DHT22;11508;50.856;4.380;2023-06-24T02:50:37;18.00;1.00
22682;DHT22;11508;50.856;4.380;2023-06-24T02:53:06;18.00;1.00
22682;DHT22;11508;50.856;4.380;2023-06-24T02:55:33;18.00;1.00
22682;DHT22;11508;50.856;4.380;2023-06-24T02:58:02;17.90;1.00
22682;DHT22;11508;50.856;4.380;2023-06-24T03:00:28;17.90;1.00
22682;DHT22;11508;50.856;4.380;2023-06-24T03:02:55;17.90;1.00
22682;DHT22;11508;50.856;4.380;2023-06-24T03:05:21;17.90;1.00
22682;DHT22;11508;50.856;4.380;2023-06-24T03:07:51;17.80;1.00
22682;DHT22;11508;50.856;4.380;2023-06-24T03:10:18;17.90;46.30
22682;DHT22;11508;50.856;4.380;2023-06-24T03:12:43;17.80;1.00
22682;DHT22;11508;50.856;4.380;2023-06-24T03:15:09;17.80;1.00
22682;DHT22;11508;50.856;4.380;2023-06-24T03:17:36;17.80;1.00
22682;DHT22;11508;50.856;4.380;2023-06-24T03:20:02;17.80;99.90
22682;DHT22;11508;50.856;4.380;2023-06-24T03:22:29;17.80;1.00
22682;DHT22;11508;50.856;4.380;2023-06-24T03:24:55;17.90;1.00
22682;DHT22;11508;50.856;4.380;2023-06-24T03:27:21;17.90;1.00
22682;DHT22;11508;50.856;4.380;2023-06-24T03:29:47;17.80;1.00
22682;DHT22;11508;50.856;4.380;2023-06-24T03:32:12;17.80;71.50
22682;DHT22;11508;50.856;4.380;2023-06-24T03:34:38;17.80;21.80
22682;DHT22;11508;50.856;4.380;2023-06-24T03:37:04;17.80;99.90
22682;DHT22;11508;50.856;4.380;2023-06-24T03:39:29;17.80;99.90
22682;DHT22;11508;50.856;4.380;2023-06-24T03:41:55;17.70;99.90
22682;DHT22;11508;50.856;4.380;2023-06-24T03:44:21;17.80;99.90
22682;DHT22;11508;50.856;4.380;2023-06-24T03:46:46;17.70;99.90
22682;DHT22;11508;50.856;4.380;2023-06-24T03:49:12;17.70;99.90
22682;DHT22;11508;50.856;4.380;2023-06-24T03:51:38;17.70;99.90
22682;DHT22;11508;50.856;4.380;2023-06-24T03:54:03;17.70;99.90
22682;DHT22;11508;50.856;4.380;2023-06-24T03:56:29;17.80;59.60
22682;DHT22;11508;50.856;4.380;2023-06-24T03:58:55;17.80;99.90
22682;DHT22;11508;50.856;4.380;2023-06-24T04:01:20;17.70;99.90
22682;DHT22;11508;50.856;4.380;2023-06-24T04:03:47;17.70;99.90
22682;DHT22;11508;50.856;4.380;2023-06-24T04:06:12;17.70;84.70
22682;DHT22;11508;50.856;4.380;2023-06-24T04:08:38;17.70;99.90
22682;DHT22;11508;50.856;4.380;2023-06-24T04:11:09;17.60;99.90
22682;DHT22;11508;50.856;4.380;2023-06-24T04:13:35;17.60;99.90
22682;DHT22;11508;50.856;4.380;2023-06-24T04:16:01;17.60;99.90
22682;DHT22;11508;50.856;4.380;2023-06-24T04:18:27;17.70;99.90
22682;DHT22;11508;50.856;4.380;2023-06-24T04:20:53;17.70;99.90
22682;DHT22;11508;50.856;4.380;2023-06-24T04:23:19;17.80;99.90
22682;DHT22;11508;50.856;4.380;2023-06-24T04:25:45;17.80;1.00
22682;DHT22;11508;50.856;4.380;2023-06-24T04:28:10;17.80;1.00
22682;DHT22;11508;50.856;4.380;2023-06-24T04:30:36;17.70;81.60
22682;DHT22;11508;50.856;4.380;2023-06-24T04:33:04;17.80;1.00
22682;DHT22;11508;50.856;4.380;2023-06-24T04:35:30;17.70;1.00
22682;DHT22;11508;50.856;4.380;2023-06-24T04:37:56;17.70;11.20
22682;DHT22;11508;50.856;4.380;2023-06-24T04:40:22;17.80;1.00
22682;DHT22;11508;50.856;4.380;2023-06-24T04:42:48;17.90;1.00
22682;DHT22;11508;50.856;4.380;2023-06-24T04:45:14;17.80;1.00
22682;DHT22;11508;50.856;4.380;2023-06-24T04:47:40;17.90;99.90
22682;DHT22;11508;50.856;4.380;2023-06-24T04:50:06;18.00;99.90
22682;DHT22;11508;50.856;4.380;2023-06-24T04:52:35;18.70;99.90
22682;DHT22;11508;50.856;4.380;2023-06-24T04:55:00;19.90;1.00
22682;DHT22;11508;50.856;4.380;2023-06-24T04:57:30;21.10;40.00
22682;DHT22;11508;50.856;4.380;2023-06-24T04:59:57;22.20;1.00
22682;DHT22;11508;50.856;4.380;2023-06-24T05:02:25;22.30;99.90
22682;DHT22;11508;50.856;4.380;2023-06-24T05:04:51;22.50;99.90
22682;DHT22;11508;50.856;4.380;2023-06-24T05:07:17;22.10;99.90
22682;DHT22;11508;50.856;4.380;2023-06-24T05:09:44;22.00;99.90
22682;DHT22;11508;50.856;4.380;2023-06-24T05:12:10;22.40;99.90
22682;DHT22;11508;50.856;4.380;2023-06-24T05:14:36;22.10;99.90
22682;DHT22;11508;50.856;4.380;2023-06-24T05:17:05;21.70;99.90
22682;DHT22;11508;50.856;4.380;2023-06-24T05:19:31;22.30;99.90
22682;DHT22;11508;50.856;4.380;2023-06-24T05:21:57;22.50;99.90
22682;DHT22;11508;50.856;4.380;2023-06-24T05:24:23;22.80;99.90
22682;DHT22;11508;50.856;4.380;2023-06-24T05:26:50;24.80;1.00
22682;DHT22;11508;50.856;4.380;2023-06-24T05:29:16;25.20;99.90
22682;DHT22;11508;50.856;4.380;2023-06-24T05:31:43;23.70;99.90
22682;DHT22;11508;50.856;4.380;2023-06-24T05:34:09;21.60;89.40
22682;DHT22;11508;50.856;4.380;2023-06-24T05:36:34;20.30;99.90
22682;DHT22;11508;50.856;4.380;2023-06-24T05:39:00;19.80;99.90
22682;DHT22;11508;50.856;4.380;2023-06-24T05:41:27;19.20;1.00
22682;DHT22;11508;50.856;4.380;2023-06-24T05:44:11;19.30;99.90
22682;DHT22;11508;50.856;4.380;2023-06-24T05:49:03;21.60;99.90
22682;DHT22;11508;50.856;4.380;2023-06-24T05:51:29;24.30;99.90
22682;DHT22;11508;50.856;4.380;2023-06-24T05:53:54;25.20;1.00
22682;DHT22;11508;50.856;4.380;2023-06-24T05:56:21;25.60;99.90
22682;DHT22;11508;50.856;4.380;2023-06-24T05:58:50;26.50;99.90
22682;DHT22;11508;50.856;4.380;2023-06-24T06:01:16;25.80;99.90
22682;DHT22;11508;50.856;4.380;2023-06-24T06:03:41;24.70;99.90
22682;DHT22;11508;50.856;4.380;2023-06-24T06:06:07;25.40;99.90
22682;DHT22;11508;50.856;4.380;2023-06-24T06:08:33;24.30;99.90
22682;DHT22;11508;50.856;4.380;2023-06-24T06:10:59;23.80;99.90
22682;DHT22;11508;50.856;4.380;2023-06-24T06:13:28;23.10;99.90
22682;DHT22;11508;50.856;4.380;2023-06-24T06:15:53;23.30;99.90
22682;DHT22;11508;50.856;4.380;2023-06-24T06:18:19;23.00;99.90
22682;DHT22;11508;50.856;4.380;2023-06-24T06:20:44;23.30;99.90
22682;DHT22;11508;50.856;4.380;2023-06-24T06:23:10;24.60;99.90
22682;DHT22;11508;50.856;4.380;2023-06-24T06:25:36;23.80;99.90
22682;DHT22;11508;50.856;4.380;2023-06-24T06:28:03;23.90;99.90
22682;DHT22;11508;50.856;4.380;2023-06-24T06:30:29;25.70;99.90
22682;DHT22;11508;50.856;4.380;2023-06-24T06:32:55;26.20;99.90
22682;DHT22;11508;50.856;4.380;2023-06-24T06:35:20;25.60;99.90
22682;DHT22;11508;50.856;4.380;2023-06-24T06:37:46;24.20;99.90
22682;DHT22;11508;50.856;4.380;2023-06-24T06:40:18;23.70;99.90
22682;DHT22;11508;50.856;4.380;2023-06-24T06:42:43;23.60;99.90
22682;DHT22;11508;50.856;4.380;2023-06-24T06:45:09;24.10;99.90
22682;DHT22;11508;50.856;4.380;2023-06-24T06:47:35;24.10;99.90
22682;DHT22;11508;50.856;4.380;2023-06-24T06:50:01;24.00;99.90
22682;DHT22;11508;50.856;4.380;2023-06-24T06:52:26;24.50;99.90
22682;DHT22;11508;50.856;4.380;2023-06-24T06:54:54;25.10;99.90
22682;DHT22;11508;50.856;4.380;2023-06-24T06:57:19;27.30;99.90
22682;DHT22;11508;50.856;4.380;2023-06-24T06:59:45;27.30;90.80
22682;DHT22;11508;50.856;4.380;2023-06-24T07:02:11;26.00;94.50
22682;DHT22;11508;50.856;4.380;2023-06-24T07:04:37;26.20;90.10
22682;DHT22;11508;50.856;4.380;2023-06-24T07:07:02;25.30;99.90
22682;DHT22;11508;50.856;4.380;2023-06-24T07:09:28;25.90;99.90
22682;DHT22;11508;50.856;4.380;2023-06-24T07:11:54;26.40;98.50
22682;DHT22;11508;50.856;4.380;2023-06-24T07:14:19;26.40;91.00
22682;DHT22;11508;50.856;4.380;2023-06-24T07:16:45;26.60;85.40
22682;DHT22;11508;50.856;4.380;2023-06-24T07:19:11;26.00;74.70
22682;DHT22;11508;50.856;4.380;2023-06-24T07:21:37;26.20;98.00
22682;DHT22;11508;50.856;4.380;2023-06-24T07:24:03;24.80;99.90
22682;DHT22;11508;50.856;4.380;2023-06-24T07:26:29;25.40;99.90
22682;DHT22;11508;50.856;4.380;2023-06-24T07:28:57;27.30;99.00
22682;DHT22;11508;50.856;4.380;2023-06-24T07:31:23;28.70;18.10
22682;DHT22;11508;50.856;4.380;2023-06-24T07:33:49;28.00;1.00
22682;DHT22;11508;50.856;4.380;2023-06-24T07:36:15;28.10;1.00
22682;DHT22;11508;50.856;4.380;2023-06-24T07:38:40;27.60;3.00
22682;DHT22;11508;50.856;4.380;2023-06-24T07:41:06;29.20;1.00
22682;DHT22;11508;50.856;4.380;2023-06-24T07:43:32;29.10;1.00
22682;DHT22;11508;50.856;4.380;2023-06-24T07:45:57;29.50;1.00
22682;DHT22;11508;50.856;4.380;2023-06-24T07:48:23;27.60;1.00
22682;DHT22;11508;50.856;4.380;2023-06-24T07:50:49;26.90;4.30
22682;DHT22;11508;50.856;4.380;2023-06-24T07:53:14;26.50;5.90
22682;DHT22;11508;50.856;4.380;2023-06-24T07:55:40;26.50;8.50
22682;DHT22;11508;50.856;4.380;2023-06-24T07:58:06;25.90;21.30
22682;DHT22;11508;50.856;4.380;2023-06-24T08:00:32;29.00;1.00
22682;DHT22;11508;50.856;4.380;2023-06-24T08:03:01;28.70;1.00
22682;DHT22;11508;50.856;4.380;2023-06-24T08:05:27;29.80;1.00
22682;DHT22;11508;50.856;4.380;2023-06-24T08:07:53;29.20;1.00
22682;DHT22;11508;50.856;4.380;2023-06-24T08:10:19;28.50;1.00
22682;DHT22;11508;50.856;4.380;2023-06-24T08:12:45;30.90;1.00
22682;DHT22;11508;50.856;4.380;2023-06-24T08:15:10;31.60;1.00
22682;DHT22;11508;50.856;4.380;2023-06-24T08:17:36;34.50;1.00
22682;DHT22;11508;50.856;4.380;2023-06-24T08:20:02;29.10;1.00
22682;DHT22;11508;50.856;4.380;2023-06-24T08:22:29;28.30;1.00
22682;DHT22;11508;50.856;4.380;2023-06-24T08:24:55;28.00;1.00
22682;DHT22;11508;50.856;4.380;2023-06-24T08:27:21;26.80;1.00
22682;DHT22;11508;50.856;4.380;2023-06-24T08:29:46;27.20;1.00
22682;DHT22;11508;50.856;4.380;2023-06-24T08:32:12;31.20;1.00
22682;DHT22;11508;50.856;4.380;2023-06-24T08:34:37;32.50;1.00
22682;DHT22;11508;50.856;4.380;2023-06-24T08:37:03;31.90;1.00
22682;DHT22;11508;50.856;4.380;2023-06-24T08:39:29;29.40;1.00
22682;DHT22;11508;50.856;4.380;2023-06-24T08:41:55;30.00;1.00
22682;DHT22;11508;50.856;4.380;2023-06-24T08:44:20;33.70;1.00
22682;DHT22;11508;50.856;4.380;2023-06-24T08:46:47;36.30;1.00
22682;DHT22;11508;50.856;4.380;2023-06-24T08:51:54;30.90;1.00
22682;DHT22;11508;50.856;4.380;2023-06-24T08:54:21;29.20;1.00
22682;DHT22;11508;50.856;4.380;2023-06-24T08:56:48;30.40;1.00
22682;DHT22;11508;50.856;4.380;2023-06-24T08:59:13;28.50;1.00
22682;DHT22;11508;50.856;4.380;2023-06-24T09:01:45;28.20;1.00
22682;DHT22;11508;50.856;4.380;2023-06-24T09:04:11;28.70;1.00
22682;DHT22;11508;50.856;4.380;2023-06-24T09:06:36;28.60;1.00
22682;DHT22;11508;50.856;4.380;2023-06-24T09:09:02;28.30;1.00
22682;DHT22;11508;50.856;4.380;2023-06-24T09:11:28;27.70;1.00
22682;DHT22;11508;50.856;4.380;2023-06-24T09:13:55;28.90;1.00
22682;DHT22;11508;50.856;4.380;2023-06-24T09:16:21;28.80;1.00
22682;DHT22;11508;50.856;4.380;2023-06-24T09:18:51;29.70;1.00
22682;DHT22;11508;50.856;4.380;2023-06-24T09:23:54;31.90;1.00
22682;DHT22;11508;50.856;4.380;2023-06-24T09:26:23;31.00;1.00
22682;DHT22;11508;50.856;4.380;2023-06-24T09:28:49;29.60;1.00
22682;DHT22;11508;50.856;4.380;2023-06-24T09:31:15;29.20;1.00
22682;DHT22;11508;50.856;4.380;2023-06-24T09:33:40;29.80;1.00
22682;DHT22;11508;50.856;4.380;2023-06-24T09:36:06;27.80;1.00
22682;DHT22;11508;50.856;4.380;2023-06-24T09:38:37;29.10;1.00
22682;DHT22;11508;50.856;4.380;2023-06-24T09:41:04;29.60;1.00
22682;DHT22;11508;50.856;4.380;2023-06-24T09:43:37;29.10;1.00
22682;DHT22;11508;50.856;4.380;2023-06-24T09:46:05;28.80;1.00
22682;DHT22;11508;50.856;4.380;2023-06-24T09:48:33;29.50;1.00
22682;DHT22;11508;50.856;4.380;2023-06-24T09:51:04;30.90;1.00
22682;DHT22;11508;50.856;4.380;2023-06-24T09:53:31;31.30;1.00
22682;DHT22;11508;50.856;4.380;2023-06-24T09:55:59;30.90;1.00
22682;DHT22;11508;50.856;4.380;2023-06-24T09:58:27;31.20;1.00
22682;DHT22;11508;50.856;4.380;2023-06-24T10:00:54;31.70;1.00
22682;DHT22;11508;50.856;4.380;2023-06-24T10:03:21;29.10;1.00
22682;DHT22;11508;50.856;4.380;2023-06-24T10:05:47;27.50;1.00
22682;DHT22;11508;50.856;4.380;2023-06-24T10:08:13;28.00;1.00
22682;DHT22;11508;50.856;4.380;2023-06-24T10:10:39;28.40;1.00
22682;DHT22;11508;50.856;4.380;2023-06-24T10:13:05;28.20;1.00
22682;DHT22;11508;50.856;4.380;2023-06-24T10:15:32;28.60;1.00
22682;DHT22;11508;50.856;4.380;2023-06-24T10:18:02;29.00;1.00
22682;DHT22;11508;50.856;4.380;2023-06-24T10:20:28;28.80;1.00
22682;DHT22;11508;50.856;4.380;2023-06-24T10:22:54;29.50;1.00
22682;DHT22;11508;50.856;4.380;2023-06-24T10:25:20;28.70;1.00
22682;DHT22;11508;50.856;4.380;2023-06-24T10:27:53;29.80;1.00
22682;DHT22;11508;50.856;4.380;2023-06-24T10:30:20;30.20;1.00
22682;DHT22;11508;50.856;4.380;2023-06-24T10:32:53;30.40;1.00
22682;DHT22;11508;50.856;4.380;2023-06-24T10:35:27;28.60;1.00
22682;DHT22;11508;50.856;4.380;2023-06-24T10:37:56;27.40;1.00
22682;DHT22;11508;50.856;4.380;2023-06-24T10:40:40;27.90;1.00
22682;DHT22;11508;50.856;4.380;2023-06-24T10:45:53;29.80;1.00
22682;DHT22;11508;50.856;4.380;2023-06-24T10:48:21;28.00;1.00
22682;DHT22;11508;50.856;4.380;2023-06-24T10:50:47;27.60;1.00
22682;DHT22;11508;50.856;4.380;2023-06-24T10:53:14;29.80;1.00
22682;DHT22;11508;50.856;4.380;2023-06-24T10:55:40;30.40;1.00
22682;DHT22;11508;50.856;4.380;2023-06-24T10:58:07;29.50;1.00
22682;DHT22;11508;50.856;4.380;2023-06-24T11:00:33;29.40;1.00
22682;DHT22;11508;50.856;4.380;2023-06-24T11:03:10;29.80;1.00
22682;DHT22;11508;50.856;4.380;2023-06-24T11:05:45;29.40;1.00
22682;DHT22;11508;50.856;4.380;2023-06-24T11:08:11;28.90;1.00
22682;DHT22;11508;50.856;4.380;2023-06-24T11:10:47;29.50;1.00
22682;DHT22;11508;50.856;4.380;2023-06-24T11:13:13;31.00;1.00
22682;DHT22;11508;50.856;4.380;2023-06-24T11:15:40;31.60;99.90
22682;DHT22;11508;50.856;4.380;2023-06-24T11:18:08;33.40;99.90
22682;DHT22;11508;50.856;4.380;2023-06-24T11:20:39;34.70;99.90
22682;DHT22;11508;50.856;4.380;2023-06-24T11:23:09;31.20;99.90
22682;DHT22;11508;50.856;4.380;2023-06-24T11:25:42;31.00;99.90
22682;DHT22;11508;50.856;4.380;2023-06-24T11:28:14;32.20;99.90
22682;DHT22;11508;50.856;4.380;2023-06-24T11:30:40;31.00;99.90
22682;DHT22;11508;50.856;4.380;2023-06-24T11:33:06;30.40;99.90
22682;DHT22;11508;50.856;4.380;2023-06-24T11:35:32;32.60;99.90
22682;DHT22;11508;50.856;4.380;2023-06-24T11:38:00;31.60;99.90
22682;DHT22;11508;50.856;4.380;2023-06-24T11:40:26;32.80;99.90
22682;DHT22;11508;50.856;4.380;2023-06-24T11:42:52;34.30;99.90
22682;DHT22;11508;50.856;4.380;2023-06-24T11:45:20;35.20;99.90
22682;DHT22;11508;50.856;4.380;2023-06-24T11:47:46;35.80;99.90
22682;DHT22;11508;50.856;4.380;2023-06-24T11:50:13;32.30;99.90
22682;DHT22;11508;50.856;4.380;2023-06-24T11:52:46;31.30;99.90
22682;DHT22;11508;50.856;4.380;2023-06-24T11:55:21;31.70;99.90
22682;DHT22;11508;50.856;4.380;2023-06-24T11:57:55;30.00;99.90
22682;DHT22;11508;50.856;4.380;2023-06-24T12:00:22;29.60;99.90
22682;DHT22;11508;50.856;4.380;2023-06-24T12:02:50;28.50;99.90
22682;DHT22;11508;50.856;4.380;2023-06-24T12:05:24;29.00;99.90
22682;DHT22;11508;50.856;4.380;2023-06-24T12:07:56;29.90;99.90
22682;DHT22;11508;50.856;4.380;2023-06-24T12:10:22;29.40;99.90
22682;DHT22;11508;50.856;4.380;2023-06-24T12:12:48;29.40;99.90
22682;DHT22;11508;50.856;4.380;2023-06-24T12:15:13;29.50;99.90
22682;DHT22;11508;50.856;4.380;2023-06-24T12:17:39;28.40;99.90
22682;DHT22;11508;50.856;4.380;2023-06-24T12:20:05;28.00;99.90
22682;DHT22;11508;50.856;4.380;2023-06-24T12:22:31;28.80;99.90
22682;DHT22;11508;50.856;4.380;2023-06-24T12:24:57;30.50;99.90
22682;DHT22;11508;50.856;4.380;2023-06-24T12:27:22;28.70;99.90
22682;DHT22;11508;50.856;4.380;2023-06-24T12:29:48;28.60;99.90
22682;DHT22;11508;50.856;4.380;2023-06-24T12:32:14;28.40;99.90
22682;DHT22;11508;50.856;4.380;2023-06-24T12:34:39;28.30;99.90
22682;DHT22;11508;50.856;4.380;2023-06-24T12:37:05;28.50;99.90
22682;DHT22;11508;50.856;4.380;2023-06-24T12:39:30;28.20;99.90
22682;DHT22;11508;50.856;4.380;2023-06-24T12:41:56;28.70;99.90
22682;DHT22;11508;50.856;4.380;2023-06-24T12:44:22;29.30;99.90
22682;DHT22;11508;50.856;4.380;2023-06-24T12:46:47;30.50;99.90
22682;DHT22;11508;50.856;4.380;2023-06-24T12:49:13;30.10;99.90
22682;DHT22;11508;50.856;4.380;2023-06-24T12:51:39;29.30;99.90
22682;DHT22;11508;50.856;4.380;2023-06-24T12:54:04;29.80;99.90
22682;DHT22;11508;50.856;4.380;2023-06-24T12:59:02;29.40;99.90
22682;DHT22;11508;50.856;4.380;2023-06-24T13:01:29;30.10;99.90
22682;DHT22;11508;50.856;4.380;2023-06-24T13:03:55;30.50;99.90
22682;DHT22;11508;50.856;4.380;2023-06-24T13:06:20;31.50;99.90
22682;DHT22;11508;50.856;4.380;2023-06-24T13:08:46;32.50;99.90
22682;DHT22;11508;50.856;4.380;2023-06-24T13:11:12;32.70;99.90
22682;DHT22;11508;50.856;4.380;2023-06-24T13:13:38;32.30;99.90
22682;DHT22;11508;50.856;4.380;2023-06-24T13:16:03;31.20;99.90
22682;DHT22;11508;50.856;4.380;2023-06-24T13:18:29;31.10;99.90
22682;DHT22;11508;50.856;4.380;2023-06-24T13:20:54;32.00;99.90
22682;DHT22;11508;50.856;4.380;2023-06-24T13:23:20;31.90;99.90
22682;DHT22;11508;50.856;4.380;2023-06-24T13:25:46;31.60;99.90
22682;DHT22;11508;50.856;4.380;2023-06-24T13:28:12;31.90;99.90
22682;DHT22;11508;50.856;4.380;2023-06-24T13:30:38;31.80;99.90
22682;DHT22;11508;50.856;4.380;2023-06-24T13:33:04;31.00;99.90
22682;DHT22;11508;50.856;4.380;2023-06-24T13:35:29;29.40;99.90
22682;DHT22;11508;50.856;4.380;2023-06-24T13:37:55;28.60;99.90
22682;DHT22;11508;50.856;4.380;2023-06-24T13:40:23;28.70;99.90
22682;DHT22;11508;50.856;4.380;2023-06-24T13:42:50;28.20;99.90
22682;DHT22;11508;50.856;4.380;2023-06-24T13:45:15;28.00;99.90
22682;DHT22;11508;50.856;4.380;2023-06-24T13:47:41;28.20;99.90
22682;DHT22;11508;50.856;4.380;2023-06-24T13:50:07;28.30;99.90
22682;DHT22;11508;50.856;4.380;2023-06-24T13:52:36;28.00;99.90
22682;DHT22;11508;50.856;4.380;2023-06-24T13:55:06;28.30;99.90
22682;DHT22;11508;50.856;4.380;2023-06-24T13:57:32;28.60;99.90
22682;DHT22;11508;50.856;4.380;2023-06-24T13:59:58;29.10;99.90
22682;DHT22;11508;50.856;4.380;2023-06-24T14:02:24;29.10;99.90
22682;DHT22;11508;50.856;4.380;2023-06-24T14:04:50;29.20;99.90
22682;DHT22;11508;50.856;4.380;2023-06-24T14:07:16;29.10;99.90
22682;DHT22;11508;50.856;4.380;2023-06-24T14:09:42;29.00;99.90
22682;DHT22;11508;50.856;4.380;2023-06-24T14:12:08;29.10;99.90
22682;DHT22;11508;50.856;4.380;2023-06-24T14:14:35;29.30;99.90
22682;DHT22;11508;50.856;4.380;2023-06-24T14:17:02;28.60;99.90
22682;DHT22;11508;50.856;4.380;2023-06-24T14:19:28;28.20;99.90
22682;DHT22;11508;50.856;4.380;2023-06-24T14:21:54;28.40;99.90
22682;DHT22;11508;50.856;4.380;2023-06-24T14:24:20;28.80;99.90
22682;DHT22;11508;50.856;4.380;2023-06-24T14:26:46;29.20;99.90
22682;DHT22;11508;50.856;4.380;2023-06-24T14:29:14;29.10;99.90
22682;DHT22;11508;50.856;4.380;2023-06-24T14:31:40;29.00;99.90
22682;DHT22;11508;50.856;4.380;2023-06-24T14:34:06;28.90;99.90
22682;DHT22;11508;50.856;4.380;2023-06-24T14:36:32;29.10;99.90
22682;DHT22;11508;50.856;4.380;2023-06-24T14:38:57;28.70;99.90
22682;DHT22;11508;50.856;4.380;2023-06-24T14:41:23;28.10;99.90
22682;DHT22;11508;50.856;4.380;2023-06-24T14:43:49;28.20;99.90
22682;DHT22;11508;50.856;4.380;2023-06-24T14:46:15;28.40;99.90
22682;DHT22;11508;50.856;4.380;2023-06-24T14:48:40;28.60;99.90
22682;DHT22;11508;50.856;4.380;2023-06-24T14:51:06;28.60;99.90
22682;DHT22;11508;50.856;4.380;2023-06-24T14:53:32;28.50;99.90
22682;DHT22;11508;50.856;4.380;2023-06-24T14:55:57;28.30;99.90
22682;DHT22;11508;50.856;4.380;2023-06-24T14:58:23;28.00;99.90
22682;DHT22;11508;50.856;4.380;2023-06-24T15:00:49;28.20;99.90
22682;DHT22;11508;50.856;4.380;2023-06-24T15:03:14;28.10;99.90
22682;DHT22;11508;50.856;4.380;2023-06-24T15:05:40;28.30;99.90
22682;DHT22;11508;50.856;4.380;2023-06-24T15:08:06;28.60;99.90
22682;DHT22;11508;50.856;4.380;2023-06-24T15:10:32;28.60;99.90
22682;DHT22;11508;50.856;4.380;2023-06-24T15:12:58;28.70;99.90
22682;DHT22;11508;50.856;4.380;2023-06-24T15:15:23;28.30;99.90
22682;DHT22;11508;50.856;4.380;2023-06-24T15:17:50;28.40;99.90
22682;DHT22;11508;50.856;4.380;2023-06-24T15:20:16;28.10;99.90
22682;DHT22;11508;50.856;4.380;2023-06-24T15:22:41;28.00;99.90
22682;DHT22;11508;50.856;4.380;2023-06-24T15:25:08;28.00;99.90
22682;DHT22;11508;50.856;4.380;2023-06-24T15:27:33;27.90;99.90
22682;DHT22;11508;50.856;4.380;2023-06-24T15:29:59;28.10;99.90
22682;DHT22;11508;50.856;4.380;2023-06-24T15:32:25;28.50;99.90
22682;DHT22;11508;50.856;4.380;2023-06-24T15:34:50;28.80;99.90
22682;DHT22;11508;50.856;4.380;2023-06-24T15:37:16;29.20;99.90
22682;DHT22;11508;50.856;4.380;2023-06-24T15:39:42;29.10;99.90
22682;DHT22;11508;50.856;4.380;2023-06-24T15:42:09;29.30;99.90
22682;DHT22;11508;50.856;4.380;2023-06-24T15:44:37;29.30;99.90
22682;DHT22;11508;50.856;4.380;2023-06-24T15:47:05;29.40;99.90
22682;DHT22;11508;50.856;4.380;2023-06-24T15:49:30;29.50;99.90
22682;DHT22;11508;50.856;4.380;2023-06-24T15:51:56;29.60;99.90
22682;DHT22;11508;50.856;4.380;2023-06-24T15:56:48;29.40;99.90
22682;DHT22;11508;50.856;4.380;2023-06-24T15:59:13;29.40;99.90
22682;DHT22;11508;50.856;4.380;2023-06-24T16:01:39;29.50;99.90
22682;DHT22;11508;50.856;4.380;2023-06-24T16:04:08;29.40;99.90
22682;DHT22;11508;50.856;4.380;2023-06-24T16:06:34;29.20;99.90